createdAt,value
2023-02-14T00:01:21.272Z,-23158.31
2023-02-14T00:03:24.008Z,-23158.00
2023-02-14T00:05:26.727Z,-23157.03
2023-02-14T00:07:29.373Z,-23157.69
2023-02-14T00:09:32.294Z,-23157.19
2023-02-14T00:11:34.969Z,-23156.56
2023-02-14T00:13:37.606Z,-23155.91
2023-02-14T00:15:40.650Z,-23156.88
2023-02-14T00:17:43.345Z,-23157.34
2023-02-14T00:19:46.152Z,-23157.69
2023-02-14T00:21:49.857Z,-23157.34
2023-02-14T00:23:52.584Z,-23157.34
2023-02-14T00:25:55.270Z,-23157.34
2023-02-14T00:27:57.940Z,-23157.69
2023-02-14T00:30:02.909Z,-23160.72
2023-02-14T00:32:07.028Z,-23166.78
2023-02-14T00:34:10.728Z,-23166.94
2023-02-14T00:36:13.483Z,-23162.00
2023-02-14T00:38:16.141Z,-23160.22
2023-02-14T00:40:18.952Z,-23161.50
2023-02-14T00:42:21.619Z,-23161.50
2023-02-14T00:44:24.952Z,-23161.19
2023-02-14T00:46:28.068Z,-23161.03
2023-02-14T00:48:32.051Z,-23162.78
2023-02-14T00:50:34.744Z,-23159.91
2023-02-14T00:52:37.471Z,-23160.56
2023-02-14T00:54:40.166Z,-23160.56
2023-02-14T00:56:43.124Z,-23157.03
2023-02-14T00:58:46.645Z,-23156.25
2023-02-14T01:00:49.487Z,-23153.03
2023-02-14T01:02:52.255Z,-23155.13
2023-02-14T01:04:56.390Z,-23155.44
2023-02-14T01:06:58.991Z,-23153.53
2023-02-14T01:09:01.772Z,-23154.63
2023-02-14T01:11:09.213Z,-23153.84
2023-02-14T01:13:12.780Z,-23156.06
2023-02-14T01:15:15.412Z,-23159.44
2023-02-14T01:17:18.039Z,-23160.72
2023-02-14T01:19:20.693Z,-23162.31
2023-02-14T01:21:27.097Z,-23156.88
2023-02-14T01:23:29.849Z,-23160.22
2023-02-14T01:25:32.786Z,-23162.47
2023-02-14T01:27:35.458Z,-23162.47
2023-02-14T01:29:38.179Z,-23156.56
2023-02-14T01:31:40.927Z,-23154.63
2023-02-14T01:33:46.052Z,-23152.56
2023-02-14T01:35:48.877Z,-23150.66
2023-02-14T01:37:52.821Z,-23149.38
2023-02-14T01:39:55.535Z,-23150.31
2023-02-14T01:41:58.222Z,-23150.66
2023-02-14T01:44:02.934Z,-23150.97
2023-02-14T01:46:05.933Z,-23150.47
2023-02-14T01:48:10.738Z,-23154.81
2023-02-14T01:50:19.509Z,-23156.25
2023-02-14T01:52:26.037Z,-23157.69
2023-02-14T01:54:31.784Z,-23153.03
2023-02-14T01:56:37.860Z,-23153.53
2023-02-14T01:58:45.932Z,-23150.97
2023-02-14T02:00:57.401Z,-23150.97
2023-02-14T02:03:02.515Z,-23149.84
2023-02-14T02:05:05.252Z,-23150.66
2023-02-14T02:07:11.420Z,-23150.66
2023-02-14T02:09:18.264Z,-23152.41
2023-02-14T02:11:22.296Z,-23157.03
2023-02-14T02:13:24.932Z,-23154.81
2023-02-14T02:15:29.275Z,-23155.59
2023-02-14T02:17:44.360Z,-23153.19
2023-02-14T02:20:16.068Z,-23151.75
2023-02-14T02:22:51.232Z,-23150.31
2023-02-14T02:25:03.731Z,-23150.31
2023-02-14T02:27:27.008Z,-23147.13
2023-02-14T02:30:02.213Z,-23147.13
2023-02-14T02:32:35.222Z,-23145.53
2023-02-14T02:35:16.702Z,-23147.59
2023-02-14T02:37:34.199Z,-23147.75
2023-02-14T02:39:53.956Z,-23147.44
2023-02-14T02:42:05.019Z,-23147.75
2023-02-14T02:44:16.348Z,-23147.44
2023-02-14T02:46:43.339Z,-23147.44
2023-02-14T02:48:54.439Z,-23151.13
2023-02-14T02:51:15.452Z,-23151.59
2023-02-14T02:53:21.260Z,-23154.47
2023-02-14T02:55:51.840Z,-23152.88
2023-02-14T02:57:55.204Z,-23156.72
2023-02-14T03:00:00.175Z,-23149.53
2023-02-14T03:02:07.503Z,-23148.72
2023-02-14T03:04:30.860Z,-23148.41
2023-02-14T03:06:35.977Z,-23150.97
2023-02-14T03:08:38.713Z,-23152.72
2023-02-14T03:10:41.538Z,-23152.88
2023-02-14T03:12:57.679Z,-23153.19
2023-02-14T03:15:13.053Z,-23152.25
2023-02-14T03:17:26.002Z,-23153.53
2023-02-14T03:20:06.125Z,-23150.66
2023-02-14T03:22:22.708Z,-23153.19
2023-02-14T03:24:30.071Z,-23154.16
2023-02-14T03:26:40.169Z,-23155.44
2023-02-14T03:28:48.890Z,-23154.16
2023-02-14T03:30:59.709Z,-23155.59
2023-02-14T03:33:07.331Z,-23155.13
2023-02-14T03:35:16.880Z,-23156.25
2023-02-14T03:37:25.083Z,-23155.28
2023-02-14T03:39:33.868Z,-23154.47
2023-02-14T03:41:40.670Z,-23156.06
2023-02-14T03:43:47.363Z,-23155.91
2023-02-14T03:45:55.682Z,-23154.00
2023-02-14T03:48:02.978Z,-23157.03
2023-02-14T03:50:10.664Z,-23156.06
2023-02-14T03:52:15.381Z,-23152.41
2023-02-14T03:54:22.874Z,-23156.72
2023-02-14T03:56:33.375Z,-23157.03
2023-02-14T03:58:39.722Z,-23156.72
2023-02-14T04:00:43.141Z,-23153.84
2023-02-14T04:02:49.094Z,-23153.03
2023-02-14T04:04:53.435Z,-23156.25
2023-02-14T04:06:56.332Z,-23157.69
2023-02-14T04:08:58.985Z,-23155.59
2023-02-14T04:11:04.317Z,-23151.28
2023-02-14T04:13:07.052Z,-23150.00
2023-02-14T04:15:10.441Z,-23147.13
2023-02-14T04:17:30.771Z,-23153.03
2023-02-14T04:19:33.513Z,-23150.31
2023-02-14T04:21:36.146Z,-23152.41
2023-02-14T04:23:38.744Z,-23147.75
2023-02-14T04:25:43.017Z,-23145.69
2023-02-14T04:27:47.101Z,-23147.13
2023-02-14T04:29:52.633Z,-23145.53
2023-02-14T04:31:55.470Z,-23148.88
2023-02-14T04:33:58.219Z,-23150.47
2023-02-14T04:36:01.495Z,-23146.16
2023-02-14T04:38:05.267Z,-23145.53
2023-02-14T04:40:09.414Z,-23144.56
2023-02-14T04:42:13.444Z,-23144.25
2023-02-14T04:44:17.543Z,-23144.56
2023-02-14T04:46:20.178Z,-23147.28
2023-02-14T04:48:22.824Z,-23148.72
2023-02-14T04:50:25.949Z,-23150.97
2023-02-14T04:52:28.693Z,-23150.31
2023-02-14T04:54:31.754Z,-23147.75
2023-02-14T04:56:34.449Z,-23149.22
2023-02-14T04:58:37.906Z,-23148.72
2023-02-14T05:00:42.108Z,-23150.66
2023-02-14T05:02:44.766Z,-23153.19
2023-02-14T05:04:49.667Z,-23150.16
2023-02-14T05:06:52.537Z,-23146.16
2023-02-14T05:08:55.160Z,-23149.38
2023-02-14T05:10:58.065Z,-23149.22
2023-02-14T05:13:02.362Z,-23145.53
2023-02-14T05:15:05.306Z,-23143.94
2023-02-14T05:17:09.403Z,-23143.59
2023-02-14T05:19:12.079Z,-23140.41
2023-02-14T05:21:14.882Z,-23142.34
2023-02-14T05:23:17.606Z,-23140.72
2023-02-14T05:25:20.332Z,-23143.59
2023-02-14T05:27:22.940Z,-23145.22
2023-02-14T05:29:25.692Z,-23146.16
2023-02-14T05:31:28.483Z,-23148.41
2023-02-14T05:33:32.524Z,-23144.88
2023-02-14T05:35:35.284Z,-23142.50
2023-02-14T05:37:37.923Z,-23140.41
2023-02-14T05:39:40.626Z,-23139.44
2023-02-14T05:41:43.390Z,-23140.09
2023-02-14T05:43:46.043Z,-23137.06
2023-02-14T05:45:49.110Z,-23137.22
2023-02-14T05:47:51.962Z,-23135.78
2023-02-14T05:49:55.904Z,-23136.41
2023-02-14T05:51:58.532Z,-23136.56
2023-02-14T05:54:01.286Z,-23135.78
2023-02-14T05:56:04.347Z,-23136.56
2023-02-14T05:58:07.010Z,-23139.78
2023-02-14T06:00:11.483Z,-23142.16
2023-02-14T06:02:15.864Z,-23141.06
2023-02-14T06:04:18.686Z,-23141.69
2023-02-14T06:06:22.725Z,-23142.97
2023-02-14T06:08:25.560Z,-23145.53
2023-02-14T06:10:28.286Z,-23146.16
2023-02-14T06:12:31.081Z,-23140.41
2023-02-14T06:14:33.711Z,-23145.69
2023-02-14T06:16:36.541Z,-23140.56
2023-02-14T06:18:39.282Z,-23141.22
2023-02-14T06:20:41.877Z,-23140.09
2023-02-14T06:22:45.959Z,-23140.41
2023-02-14T06:24:48.557Z,-23142.50
2023-02-14T06:26:51.296Z,-23133.69
2023-02-14T06:28:54.669Z,-23132.56
2023-02-14T06:30:57.454Z,-23131.94
2023-02-14T06:33:03.199Z,-23133.53
2023-02-14T06:35:06.489Z,-23134.66
2023-02-14T06:37:09.436Z,-23133.06
2023-02-14T06:39:13.462Z,-23134.16
2023-02-14T06:41:17.196Z,-23131.78
2023-02-14T06:43:19.884Z,-23131.78
2023-02-14T06:45:22.508Z,-23132.41
2023-02-14T06:47:25.216Z,-23132.25
2023-02-14T06:49:27.965Z,-23132.72
2023-02-14T06:51:30.715Z,-23133.06
2023-02-14T06:53:33.657Z,-23133.38
2023-02-14T06:55:37.633Z,-23135.13
2023-02-14T06:57:40.495Z,-23136.72
2023-02-14T06:59:43.154Z,-23137.38
2023-02-14T07:01:45.904Z,-23139.44
2023-02-14T07:03:48.574Z,-23139.44
2023-02-14T07:05:51.305Z,-23141.69
2023-02-14T07:07:54.254Z,-23143.28
2023-02-14T07:09:56.940Z,-23145.84
2023-02-14T07:12:01.072Z,-23152.41
2023-02-14T07:14:03.702Z,-23148.88
2023-02-14T07:16:06.866Z,-23150.97
2023-02-14T07:18:10.567Z,-23154.47
2023-02-14T07:20:14.610Z,-23158.16
2023-02-14T07:22:17.319Z,-23157.50
2023-02-14T07:24:19.981Z,-23164.22
2023-02-14T07:26:22.741Z,-23164.72
2023-02-14T07:28:26.924Z,-23165.19
2023-02-14T07:30:29.690Z,-23169.03
2023-02-14T07:32:32.530Z,-23164.06
2023-02-14T07:34:35.212Z,-23169.97
2023-02-14T07:36:38.706Z,-23171.72
2023-02-14T07:38:41.464Z,-23173.81
2023-02-14T07:40:44.091Z,-23179.41
2023-02-14T07:42:53.568Z,-23175.56
2023-02-14T07:44:57.539Z,-23173.66
2023-02-14T07:47:00.236Z,-23175.72
2023-02-14T07:49:02.957Z,-23170.63
2023-02-14T07:51:05.674Z,-23178.44
2023-02-14T07:53:09.174Z,-23183.41
2023-02-14T07:55:12.020Z,-23176.22
2023-02-14T07:57:14.726Z,-23181.97
2023-02-14T07:59:17.650Z,-23190.91
2023-02-14T08:01:22.205Z,-23206.25
2023-02-14T08:03:25.078Z,-23222.19
2023-02-14T08:05:27.836Z,-23240.06
2023-02-14T08:07:30.587Z,-23257.94
2023-02-14T08:09:33.287Z,-23275.31
2023-02-14T08:12:07.946Z,-23257.28
2023-02-14T08:14:10.707Z,-23274.03
2023-02-14T08:16:13.428Z,-23306.69
2023-02-14T08:18:18.653Z,-23315.28
2023-02-14T08:20:21.562Z,-23275.78
2023-02-14T08:22:24.295Z,-23257.63
2023-02-14T08:24:27.431Z,-23281.03
2023-02-14T08:26:30.213Z,-23299.69
2023-02-14T08:28:33.540Z,-23325.97
2023-02-14T08:30:38.197Z,-23302.56
2023-02-14T08:32:41.068Z,-23287.56
2023-02-14T08:34:45.194Z,-23299.69
2023-02-14T08:36:48.418Z,-23372.56
2023-02-14T08:38:51.184Z,-23341.41
2023-02-14T08:40:53.871Z,-23334.06
2023-02-14T08:42:56.748Z,-23352.22
2023-02-14T08:44:59.517Z,-23367.97
2023-02-14T08:47:03.679Z,-23330.09
2023-02-14T08:49:06.571Z,-23301.44
2023-02-14T08:51:12.509Z,-23307.00
2023-02-14T08:53:15.199Z,-23358.59
2023-02-14T08:55:18.085Z,-23389.09
2023-02-14T08:57:21.168Z,-23357.00
2023-02-14T08:59:24.007Z,-23330.88
2023-02-14T09:01:27.685Z,-23344.25
2023-02-14T09:03:30.900Z,-23382.13
2023-02-14T09:05:34.317Z,-23377.34
2023-02-14T09:07:38.734Z,-23394.81
2023-02-14T09:09:41.749Z,-23402.78
2023-02-14T09:11:44.549Z,-23399.28
2023-02-14T09:13:48.252Z,-23381.00
2023-02-14T09:15:50.930Z,-23326.28
2023-02-14T09:17:53.674Z,-23354.75
2023-02-14T09:19:56.402Z,-23338.22
2023-02-14T09:21:59.101Z,-23359.69
2023-02-14T09:24:03.149Z,-23346.16
2023-02-14T09:26:07.914Z,-23339.97
2023-02-14T09:28:10.549Z,-23384.34
2023-02-14T09:30:14.584Z,-23370.03
2023-02-14T09:32:17.641Z,-23356.84
2023-02-14T09:34:38.019Z,-23371.47
2023-02-14T09:36:40.826Z,-23397.84
2023-02-14T09:38:43.623Z,-23336.31
2023-02-14T09:40:50.603Z,-23340.44
2023-02-14T09:43:02.139Z,-23348.72
2023-02-14T09:45:10.737Z,-23419.94
2023-02-14T09:47:22.864Z,-23482.75
2023-02-14T09:49:34.741Z,-23440.72
2023-02-14T09:51:38.826Z,-23484.03
2023-02-14T09:53:47.318Z,-23446.28
2023-02-14T09:55:56.922Z,-23445.31
2023-02-14T09:58:12.105Z,-23439.28
2023-02-14T10:00:22.403Z,-23462.63
2023-02-14T10:02:43.480Z,-23403.72
2023-02-14T10:04:58.715Z,-23411.03
2023-02-14T10:07:12.185Z,-23441.53
2023-02-14T10:09:33.589Z,-23460.56
2023-02-14T10:11:38.459Z,-23492.75
2023-02-14T10:13:46.031Z,-23432.00
2023-02-14T10:15:53.887Z,-23414.38
2023-02-14T10:18:01.742Z,-23400.53
2023-02-14T10:20:15.960Z,-23480.22
2023-02-14T10:22:20.849Z,-23459.13
2023-02-14T10:24:28.702Z,-23469.13
2023-02-14T10:26:37.075Z,-23484.97
2023-02-14T10:28:45.741Z,-23449.44
2023-02-14T10:30:57.891Z,-23393.88
2023-02-14T10:33:07.083Z,-23384.66
2023-02-14T10:35:23.715Z,-23404.19
2023-02-14T10:37:39.843Z,-23390.38
2023-02-14T10:39:58.290Z,-23361.44
2023-02-14T10:42:07.700Z,-23373.22
2023-02-14T10:44:23.592Z,-23371.63
2023-02-14T10:46:37.884Z,-23404.03
2023-02-14T10:48:52.814Z,-23416.91
2023-02-14T10:51:01.975Z,-23438.81
2023-02-14T10:53:15.008Z,-23413.88
2023-02-14T10:55:32.083Z,-23428.19
2023-02-14T10:57:38.813Z,-23423.72
2023-02-14T10:59:52.476Z,-23395.47
2023-02-14T11:01:57.327Z,-23390.22
2023-02-14T11:04:06.450Z,-23376.06
2023-02-14T11:06:10.247Z,-23390.22
2023-02-14T11:08:23.167Z,-23398.00
2023-02-14T11:10:29.735Z,-23378.31
2023-02-14T11:12:34.201Z,-23386.56
2023-02-14T11:14:38.508Z,-23374.31
2023-02-14T11:16:42.479Z,-23380.84
2023-02-14T11:18:45.323Z,-23384.97
2023-02-14T11:21:01.820Z,-23398.31
2023-02-14T11:23:19.858Z,-23379.72
2023-02-14T11:25:24.804Z,-23388.47
2023-02-14T11:27:27.827Z,-23382.59
2023-02-14T11:29:32.739Z,-23388.47
2023-02-14T11:31:39.098Z,-23394.03
2023-02-14T11:33:45.711Z,-23374.81
2023-02-14T11:35:51.590Z,-23390.06
2023-02-14T11:37:56.742Z,-23394.19
2023-02-14T11:40:01.191Z,-23385.94
2023-02-14T11:42:06.439Z,-23410.72
2023-02-14T11:44:22.317Z,-23407.84
2023-02-14T11:46:30.506Z,-23406.28
2023-02-14T11:48:38.862Z,-23420.09
2023-02-14T11:50:45.321Z,-23416.91
2023-02-14T11:52:52.112Z,-23423.88
2023-02-14T11:54:54.934Z,-23436.13
2023-02-14T11:57:02.678Z,-23424.69
2023-02-14T11:59:06.345Z,-23421.66
2023-02-14T12:01:13.611Z,-23417.69
2023-02-14T12:03:20.033Z,-23424.06
2023-02-14T12:05:27.258Z,-23428.34
2023-02-14T12:07:34.527Z,-23417.69
2023-02-14T12:09:40.674Z,-23404.69
2023-02-14T12:11:56.467Z,-23402.13
2023-02-14T12:13:59.875Z,-23424.69
2023-02-14T12:16:03.816Z,-23429.28
2023-02-14T12:18:37.947Z,-23441.53
2023-02-14T12:20:46.439Z,-23422.31
2023-02-14T12:22:56.541Z,-23417.53
2023-02-14T12:25:07.443Z,-23425.00
2023-02-14T12:27:21.071Z,-23428.03
2023-02-14T12:29:27.991Z,-23435.97
2023-02-14T12:31:31.576Z,-23433.91
2023-02-14T12:33:34.389Z,-23441.69
2023-02-14T12:35:48.472Z,-23451.84
2023-02-14T12:38:04.600Z,-23462.63
2023-02-14T12:40:17.546Z,-23446.13
2023-02-14T12:42:35.482Z,-23450.41
2023-02-14T12:44:48.636Z,-23491.00
2023-02-14T12:47:17.766Z,-23487.34
2023-02-14T12:49:49.442Z,-23487.03
2023-02-14T12:52:01.033Z,-23485.28
2023-02-14T12:54:22.105Z,-23490.38
2023-02-14T12:56:37.224Z,-23509.69
2023-02-14T12:58:50.737Z,-23498.44
2023-02-14T13:01:06.199Z,-23508.09
2023-02-14T13:03:28.249Z,-23567.16
2023-02-14T13:05:46.501Z,-23510.97
2023-02-14T13:08:14.843Z,-23492.09
2023-02-14T13:10:32.698Z,-23526.78
2023-02-14T13:12:42.118Z,-23490.69
2023-02-14T13:14:59.317Z,-23481.00
2023-02-14T13:17:09.150Z,-23509.69
2023-02-14T13:19:22.255Z,-23503.69
2023-02-14T13:21:28.930Z,-23543.88
2023-02-14T13:23:37.266Z,-23564.13
2023-02-14T13:25:49.860Z,-23548.00
2023-02-14T13:27:52.761Z,-23500.97
2023-02-14T13:29:59.064Z,-23489.09
2023-02-14T13:32:04.028Z,-23468.50
2023-02-14T13:34:10.131Z,-23471.66
2023-02-14T13:36:14.442Z,-23473.25
2023-02-14T13:38:19.617Z,-23476.88
2023-02-14T13:40:24.817Z,-23497.34
2023-02-14T13:42:55.504Z,-23492.75
2023-02-14T13:44:58.435Z,-23477.53
2023-02-14T13:47:01.179Z,-23488.16
2023-02-14T13:49:17.113Z,-23483.38
2023-02-14T13:51:19.707Z,-23517.94
2023-02-14T13:53:36.947Z,-23510.81
2023-02-14T13:55:45.582Z,-23489.56
2023-02-14T13:58:04.206Z,-23476.72
2023-02-14T14:00:37.307Z,-23472.91
2023-02-14T14:02:45.413Z,-23491.31
2023-02-14T14:04:48.090Z,-23477.38
2023-02-14T14:07:17.630Z,-23475.94
2023-02-14T14:09:53.466Z,-23476.41
2023-02-14T14:11:56.348Z,-23479.91
2023-02-14T14:14:02.551Z,-23484.97
2023-02-14T14:16:27.373Z,-23493.84
2023-02-14T14:18:42.697Z,-23475.63
2023-02-14T14:20:47.875Z,-23475.78
2023-02-14T14:22:52.942Z,-23474.66
2023-02-14T14:25:01.885Z,-23468.50
2023-02-14T14:27:07.856Z,-23472.13
2023-02-14T14:29:17.241Z,-23472.28
2023-02-14T14:31:21.027Z,-23471.97
2023-02-14T14:33:30.100Z,-23475.16
2023-02-14T14:35:32.766Z,-23461.34
2023-02-14T14:37:37.433Z,-23466.09
2023-02-14T14:39:40.286Z,-23467.84
2023-02-14T14:41:43.016Z,-23466.91
2023-02-14T14:43:45.909Z,-23454.69
2023-02-14T14:45:52.885Z,-23464.69
2023-02-14T14:47:58.617Z,-23465.00
2023-02-14T14:50:07.526Z,-23464.53
2023-02-14T14:52:25.457Z,-23462.13
2023-02-14T14:54:30.057Z,-23464.69
2023-02-14T14:56:35.841Z,-23465.94
2023-02-14T14:58:40.279Z,-23467.06
2023-02-14T15:00:53.786Z,-23466.09
2023-02-14T15:03:02.772Z,-23454.84
2023-02-14T15:05:26.473Z,-23464.19
2023-02-14T15:07:34.010Z,-23456.59
2023-02-14T15:09:36.951Z,-23455.00
2023-02-14T15:11:59.205Z,-23448.19
2023-02-14T15:14:05.678Z,-23451.84
2023-02-14T15:16:09.785Z,-23451.50
2023-02-14T15:18:14.271Z,-23455.78
2023-02-14T15:20:20.179Z,-23453.91
2023-02-14T15:22:26.562Z,-23449.59
2023-02-14T15:24:30.464Z,-23452.16
2023-02-14T15:26:36.400Z,-23444.69
2023-02-14T15:28:39.123Z,-23442.31
2023-02-14T15:30:44.113Z,-23442.63
2023-02-14T15:32:50.262Z,-23443.09
2023-02-14T15:34:53.766Z,-23443.59
2023-02-14T15:37:03.430Z,-23441.53
2023-02-14T15:39:09.495Z,-23438.66
2023-02-14T15:41:14.887Z,-23438.66
2023-02-14T15:43:27.768Z,-23436.44
2023-02-14T15:45:31.739Z,-23434.53
2023-02-14T15:47:34.572Z,-23434.84
2023-02-14T15:49:41.127Z,-23432.31
2023-02-14T15:51:44.377Z,-23430.09
2023-02-14T15:53:52.377Z,-23431.69
2023-02-14T15:55:56.158Z,-23423.72
2023-02-14T15:58:03.668Z,-23424.06
2023-02-14T16:00:11.378Z,-23422.16
2023-02-14T16:02:28.957Z,-23417.38
2023-02-14T16:04:34.544Z,-23418.03
2023-02-14T16:06:40.383Z,-23413.56
2023-02-14T16:08:43.017Z,-23414.03
2023-02-14T16:11:00.003Z,-23407.84
2023-02-14T16:13:09.647Z,-23405.47
2023-02-14T16:15:20.215Z,-23404.03
2023-02-14T16:17:33.287Z,-23400.22
2023-02-14T16:19:38.797Z,-23399.28
2023-02-14T16:21:57.177Z,-23399.28
2023-02-14T16:24:13.148Z,-23397.22
2023-02-14T16:26:16.170Z,-23394.50
2023-02-14T16:28:19.040Z,-23390.22
2023-02-14T16:30:22.168Z,-23391.50
2023-02-14T16:32:25.365Z,-23389.44
2023-02-14T16:34:28.850Z,-23388.47
2023-02-14T16:36:33.883Z,-23380.53
2023-02-14T16:38:43.733Z,-23380.22
2023-02-14T16:40:48.690Z,-23380.84
2023-02-14T16:42:51.402Z,-23379.72
2023-02-14T16:44:54.283Z,-23379.09
2023-02-14T16:46:56.935Z,-23376.22
2023-02-14T16:48:59.859Z,-23376.41
2023-02-14T16:51:02.812Z,-23373.06
2023-02-14T16:53:07.103Z,-23371.78
2023-02-14T16:55:19.849Z,-23370.50
2023-02-14T16:57:27.452Z,-23370.66
2023-02-14T16:59:30.798Z,-23366.84
2023-02-14T17:01:33.810Z,-23368.44
2023-02-14T17:03:36.500Z,-23364.94
2023-02-14T17:05:41.760Z,-23366.22
2023-02-14T17:07:44.619Z,-23367.00
2023-02-14T17:09:51.112Z,-23363.66
2023-02-14T17:11:58.599Z,-23360.81
2023-02-14T17:14:01.425Z,-23361.75
2023-02-14T17:16:06.249Z,-23359.84
2023-02-14T17:18:13.023Z,-23354.59
2023-02-14T17:20:19.289Z,-23354.75
2023-02-14T17:22:22.042Z,-23354.75
2023-02-14T17:24:24.831Z,-23357.00
2023-02-14T17:26:29.774Z,-23354.44
2023-02-14T17:28:34.005Z,-23354.13
2023-02-14T17:30:36.795Z,-23352.53
2023-02-14T17:32:39.557Z,-23349.66
2023-02-14T17:34:42.308Z,-23347.44
2023-02-14T17:36:45.040Z,-23346.00
2023-02-14T17:38:47.974Z,-23343.94
2023-02-14T17:40:51.017Z,-23342.50
2023-02-14T17:42:54.111Z,-23337.56
2023-02-14T17:44:58.480Z,-23336.94
2023-02-14T17:47:01.316Z,-23337.09
2023-02-14T17:49:04.200Z,-23335.66
2023-02-14T17:51:08.367Z,-23333.44
2023-02-14T17:53:12.575Z,-23333.44
2023-02-14T17:55:16.262Z,-23330.56
2023-02-14T17:57:19.496Z,-23330.56
2023-02-14T17:59:22.427Z,-23328.81
2023-02-14T18:01:28.616Z,-23327.72
2023-02-14T18:03:31.509Z,-23325.47
2023-02-14T18:05:37.041Z,-23324.84
2023-02-14T18:07:40.212Z,-23323.09
2023-02-14T18:09:43.261Z,-23322.31
2023-02-14T18:11:46.758Z,-23321.03
2023-02-14T18:13:50.239Z,-23319.44
2023-02-14T18:15:53.763Z,-23319.44
2023-02-14T18:17:57.890Z,-23317.53
2023-02-14T18:20:00.640Z,-23317.53
2023-02-14T18:22:03.502Z,-23317.19
2023-02-14T18:24:06.696Z,-23315.59
2023-02-14T18:26:13.028Z,-23314.34
2023-02-14T18:28:16.420Z,-23314.03
2023-02-14T18:30:19.502Z,-23314.97
2023-02-14T18:32:22.138Z,-23313.38
2023-02-14T18:34:26.122Z,-23313.22
2023-02-14T18:36:29.521Z,-23313.06
2023-02-14T18:38:32.222Z,-23312.09
2023-02-14T18:40:35.382Z,-23310.84
2023-02-14T18:42:38.132Z,-23309.56
2023-02-14T18:44:40.835Z,-23308.75
2023-02-14T18:46:43.471Z,-23307.66
2023-02-14T18:48:47.395Z,-23306.69
2023-02-14T18:50:52.822Z,-23305.41
2023-02-14T18:52:55.679Z,-23305.75
2023-02-14T18:54:59.331Z,-23305.91
2023-02-14T18:57:02.071Z,-23304.16
2023-02-14T18:59:06.485Z,-23304.63
2023-02-14T19:01:09.908Z,-23304.78
2023-02-14T19:03:12.699Z,-23303.50
2023-02-14T19:05:15.395Z,-23300.63
2023-02-14T19:07:19.395Z,-23300.81
2023-02-14T19:09:22.089Z,-23299.84
2023-02-14T19:11:27.350Z,-23299.69
2023-02-14T19:13:32.115Z,-23301.75
2023-02-14T19:15:34.781Z,-23299.84
2023-02-14T19:17:38.961Z,-23296.50
2023-02-14T19:19:41.703Z,-23299.22
2023-02-14T19:21:44.418Z,-23296.03
2023-02-14T19:23:49.544Z,-23295.38
2023-02-14T19:25:52.293Z,-23295.88
2023-02-14T19:27:55.066Z,-23294.28
2023-02-14T19:29:57.725Z,-23292.84
2023-02-14T19:32:00.879Z,-23293.63
2023-02-14T19:34:04.311Z,-23293.31
2023-02-14T19:36:09.158Z,-23292.69
2023-02-14T19:38:12.133Z,-23291.25
2023-02-14T19:40:16.315Z,-23292.84
2023-02-14T19:42:18.942Z,-23292.84
2023-02-14T19:44:23.614Z,-23293.00
2023-02-14T19:46:29.280Z,-23290.75
2023-02-14T19:48:31.953Z,-23288.69
2023-02-14T19:50:34.631Z,-23288.53
2023-02-14T19:52:37.329Z,-23287.09
2023-02-14T19:54:40.220Z,-23286.47
2023-02-14T19:56:46.125Z,-23287.25
2023-02-14T19:58:49.248Z,-23286.47
2023-02-14T20:00:56.859Z,-23289.66
2023-02-14T20:03:01.716Z,-23288.84
2023-02-14T20:05:04.496Z,-23283.75
2023-02-14T20:07:07.147Z,-23284.38
2023-02-14T20:09:10.021Z,-23279.59
2023-02-14T20:11:25.638Z,-23283.91
2023-02-14T20:13:29.573Z,-23286.31
2023-02-14T20:15:32.425Z,-23281.19
2023-02-14T20:17:35.450Z,-23272.13
2023-02-14T20:19:38.168Z,-23269.72
2023-02-14T20:21:42.619Z,-23269.41
2023-02-14T20:23:45.996Z,-23269.25
2023-02-14T20:25:48.583Z,-23269.72
2023-02-14T20:27:54.660Z,-23267.81
2023-02-14T20:29:58.649Z,-23269.41
2023-02-14T20:32:03.600Z,-23266.88
2023-02-14T20:34:07.121Z,-23263.34
2023-02-14T20:36:11.013Z,-23264.16
2023-02-14T20:38:13.638Z,-23267.00
2023-02-14T20:40:16.428Z,-23263.34
2023-02-14T20:42:19.111Z,-23261.13
2023-02-14T20:44:22.192Z,-23264.31
2023-02-14T20:46:26.278Z,-23263.03
2023-02-14T20:48:29.648Z,-23262.22
2023-02-14T20:50:32.659Z,-23261.13
2023-02-14T20:52:37.107Z,-23260.66
2023-02-14T20:54:40.374Z,-23258.72
2023-02-14T20:56:43.151Z,-23258.41
2023-02-14T20:58:46.094Z,-23258.88
2023-02-14T21:00:48.984Z,-23256.00
2023-02-14T21:02:53.326Z,-23253.47
2023-02-14T21:05:00.090Z,-23251.88
2023-02-14T21:07:07.698Z,-23252.50
2023-02-14T21:09:10.408Z,-23249.00
2023-02-14T21:11:15.687Z,-23247.09
2023-02-14T21:13:18.368Z,-23247.41
2023-02-14T21:15:21.054Z,-23245.19
2023-02-14T21:17:23.815Z,-23242.47
2023-02-14T21:19:28.532Z,-23241.81
2023-02-14T21:21:34.674Z,-23243.25
2023-02-14T21:23:37.334Z,-23240.38
2023-02-14T21:25:40.400Z,-23240.22
2023-02-14T21:27:43.194Z,-23239.91
2023-02-14T21:29:45.858Z,-23240.88
2023-02-14T21:31:48.544Z,-23234.97
2023-02-14T21:33:53.305Z,-23238.00
2023-02-14T21:35:57.328Z,-23236.09
2023-02-14T21:38:00.104Z,-23233.69
2023-02-14T21:40:02.929Z,-23230.03
2023-02-14T21:42:05.706Z,-23231.47
2023-02-14T21:44:08.353Z,-23231.47
2023-02-14T21:46:11.689Z,-23230.03
2023-02-14T21:48:31.972Z,-23228.41
2023-02-14T21:50:34.613Z,-23226.34
2023-02-14T21:52:38.758Z,-23227.78
2023-02-14T21:54:41.474Z,-23229.22
2023-02-14T21:56:44.543Z,-23227.31
2023-02-14T21:58:48.342Z,-23230.34
2023-02-14T22:00:50.996Z,-23226.03
2023-02-14T22:02:53.872Z,-23227.31
2023-02-14T22:04:56.748Z,-23225.72
2023-02-14T22:06:59.384Z,-23226.03
2023-02-14T22:09:03.731Z,-23225.38
2023-02-14T22:11:07.800Z,-23225.06
2023-02-14T22:13:10.550Z,-23226.66
2023-02-14T22:15:13.395Z,-23226.66
2023-02-14T22:17:16.113Z,-23231.13
2023-02-14T22:19:18.881Z,-23229.22
2023-02-14T22:21:23.539Z,-23227.00
2023-02-14T22:23:28.998Z,-23227.47
2023-02-14T22:25:33.276Z,-23227.16
2023-02-14T22:27:39.334Z,-23228.09
2023-02-14T22:29:42.081Z,-23229.22
2023-02-14T22:31:45.039Z,-23227.00
2023-02-14T22:33:49.166Z,-23225.38
2023-02-14T22:35:55.411Z,-23225.72
2023-02-14T22:37:58.134Z,-23224.13
2023-02-14T22:40:00.818Z,-23224.44
2023-02-14T22:42:06.855Z,-23222.69
2023-02-14T22:44:11.619Z,-23222.69
2023-02-14T22:46:16.922Z,-23220.94
2023-02-14T22:48:20.416Z,-23223.16
2023-02-14T22:50:23.056Z,-23228.59
2023-02-14T22:52:25.799Z,-23220.44
2023-02-14T22:54:28.553Z,-23220.94
2023-02-14T22:56:34.212Z,-23222.03
2023-02-14T22:58:38.320Z,-23219.31
2023-02-14T23:00:40.937Z,-23219.00
2023-02-14T23:02:43.743Z,-23216.78
2023-02-14T23:04:46.775Z,-23219.81
2023-02-14T23:06:49.751Z,-23216.78
2023-02-14T23:08:53.246Z,-23211.34
2023-02-14T23:10:55.980Z,-23209.28
2023-02-14T23:13:16.286Z,-23208.47
2023-02-14T23:15:34.314Z,-23207.19
2023-02-14T23:17:54.747Z,-23207.19
2023-02-14T23:20:15.333Z,-23209.75
2023-02-14T23:22:20.451Z,-23208.47
2023-02-14T23:24:23.900Z,-23205.91
2023-02-14T23:26:26.516Z,-23205.91
2023-02-14T23:28:29.472Z,-23202.41
2023-02-14T23:30:33.443Z,-23201.75
2023-02-14T23:32:36.175Z,-23204.31
2023-02-14T23:34:41.215Z,-23204.31
2023-02-14T23:36:44.080Z,-23202.41
2023-02-14T23:38:46.712Z,-23201.94
2023-02-14T23:41:06.854Z,-23201.75
2023-02-14T23:43:09.487Z,-23201.28
2023-02-14T23:45:29.856Z,-23200.16
2023-02-14T23:47:34.493Z,-23201.13
2023-02-14T23:49:39.034Z,-23202.88
2023-02-14T23:51:42.305Z,-23206.88
2023-02-14T23:53:44.898Z,-23204.00
2023-02-14T23:55:47.554Z,-23202.56
2023-02-14T23:57:50.193Z,-23203.38
2023-02-14T23:59:52.983Z,-23204.00
